Time;durP1;ratioP1;P1;durP2;ratioP2;P2;SDS_P1;SDS_P2;PMS_P1;PMS_P2;Temp;Humidity;BMP_temperature;BMP_pressure;BME280_temperature;BME280_humidity;BME280_pressure;Samples;Min_cycle;Max_cycle;Signal;HPM_P1;HPM_P2
2023/07/24 00:00:46;;;;;;;4.25;1.63;;;19.50;99.90;;;;;;5099194;28;20248;-78
2023/07/24 00:03:13;;;;;;;1.80;1.70;;;19.50;99.90;;;;;;5100370;28;20231;-78
2023/07/24 00:05:39;;;;;;;2.70;1.52;;;19.60;99.90;;;;;;5100195;28;20216;-78
2023/07/24 00:08:06;;;;;;;2.38;1.60;;;19.50;99.90;;;;;;5098934;28;20201;-78
2023/07/24 00:10:34;;;;;;;2.63;1.40;;;19.60;99.90;;;;;;5093709;28;20198;-78
2023/07/24 00:13:03;;;;;;;2.15;1.80;;;19.60;99.90;;;;;;5078414;28;20246;-77
2023/07/24 00:15:29;;;;;;;2.30;1.70;;;19.70;99.90;;;;;;5079053;28;20293;-78
2023/07/24 00:17:56;;;;;;;1.77;1.67;;;19.40;99.90;;;;;;5095957;28;20658;-77
2023/07/24 00:20:24;;;;;;;2.28;1.30;;;19.50;99.90;;;;;;5098878;28;20575;-77
2023/07/24 00:22:51;;;;;;;2.95;1.63;;;19.60;99.90;;;;;;5099590;28;20221;-78
2023/07/24 00:25:18;;;;;;;2.55;1.70;;;19.50;99.90;;;;;;5098180;28;20259;-78
2023/07/24 00:27:46;;;;;;;2.72;1.83;;;19.50;99.90;;;;;;5098939;28;20208;-78
2023/07/24 00:30:13;;;;;;;1.80;1.70;;;19.50;99.90;;;;;;5088472;28;20725;-77
2023/07/24 00:32:40;;;;;;;2.15;1.85;;;19.50;99.90;;;;;;5079605;28;20236;-79
2023/07/24 00:35:08;;;;;;;2.22;1.77;;;19.50;99.90;;;;;;5079052;28;20216;-78
2023/07/24 00:37:35;;;;;;;1.92;1.60;;;19.50;99.90;;;;;;5083180;28;20230;-78
2023/07/24 00:40:02;;;;;;;1.60;1.50;;;19.50;99.90;;;;;;5098380;28;20219;-78
2023/07/24 00:42:28;;;;;;;1.80;1.70;;;19.50;99.90;;;;;;5097986;28;20266;-78
2023/07/24 00:44:57;;;;;;;2.75;1.75;;;19.40;99.90;;;;;;5097443;28;20201;-78
2023/07/24 00:47:25;;;;;;;1.90;1.80;;;19.40;99.90;;;;;;5097347;28;20219;-78
2023/07/24 00:49:52;;;;;;;2.13;1.42;;;19.40;99.90;;;;;;5099510;28;20308;-78
2023/07/24 00:52:19;;;;;;;2.35;1.35;;;19.50;99.90;;;;;;5097142;28;20218;-78
2023/07/24 00:54:47;;;;;;;3.08;2.00;;;19.50;99.90;;;;;;5098766;28;20197;-78
2023/07/24 00:57:14;;;;;;;1.83;1.70;;;19.40;99.90;;;;;;5097739;28;20221;-78
2023/07/24 00:59:42;;;;;;;1.85;1.67;;;19.30;99.90;;;;;;5098756;28;20748;-77
2023/07/24 01:02:12;;;;;;;1.90;1.80;;;19.40;99.90;;;;;;5099844;28;20225;-78
2023/07/24 01:04:39;;;;;;;1.83;1.70;;;19.40;99.90;;;;;;5099013;28;20233;-77
2023/07/24 01:07:06;;;;;;;1.83;1.73;;;19.40;99.90;;;;;;5096971;28;20205;-77
2023/07/24 01:09:33;;;;;;;2.80;1.80;;;19.40;99.90;;;;;;5099801;28;20209;-78
2023/07/24 01:12:05;;;;;;;2.28;2.00;;;19.40;99.90;;;;;;5099703;28;20282;-79
2023/07/24 01:14:42;;;;;;;2.40;1.90;;;19.40;99.90;;;;;;5099536;28;20229;-77
2023/07/24 01:17:13;;;;;;;2.00;1.70;;;19.40;99.90;;;;;;5097278;28;20213;-77
2023/07/24 01:19:43;;;;;;;2.13;1.92;;;19.40;99.90;;;;;;5098243;28;20536;-78
2023/07/24 01:22:16;;;;;;;2.38;2.17;;;19.40;99.90;;;;;;5098194;28;20229;-78
2023/07/24 01:24:59;;;;;;;4.55;1.90;;;19.40;99.90;;;;;;5097922;28;20224;-77
2023/07/24 01:27:28;;;;;;;2.15;2.00;;;19.40;99.90;;;;;;5102523;28;20193;-78
2023/07/24 01:29:54;;;;;;;2.42;2.20;;;19.30;99.90;;;;;;5103259;28;20654;-78
2023/07/24 01:32:21;;;;;;;2.33;1.85;;;19.30;99.90;;;;;;5101565;28;20221;-78
2023/07/24 01:34:49;;;;;;;2.63;1.83;;;19.20;99.90;;;;;;5101001;28;20208;-78
2023/07/24 01:37:17;;;;;;;2.65;2.00;;;19.20;99.90;;;;;;5098683;28;20213;-77
2023/07/24 01:39:45;;;;;;;2.22;2.03;;;19.20;99.90;;;;;;5081274;28;20205;-78
2023/07/24 01:42:12;;;;;;;3.78;2.05;;;19.20;99.90;;;;;;5084488;28;20218;-79
2023/07/24 01:44:41;;;;;;;2.50;2.30;;;19.10;99.90;;;;;;5082143;28;20289;-78
2023/07/24 01:47:07;;;;;;;2.30;2.10;;;19.10;99.90;;;;;;5080839;28;20205;-78
2023/07/24 01:49:34;;;;;;;2.20;2.10;;;19.10;99.90;;;;;;5083526;28;20202;-78
2023/07/24 01:52:00;;;;;;;2.25;2.03;;;19.20;99.90;;;;;;5101358;28;20763;-78
2023/07/24 01:54:27;;;;;;;2.20;2.00;;;19.20;99.90;;;;;;5101390;28;20201;-78
2023/07/24 01:56:54;;;;;;;2.00;1.90;;;19.20;99.90;;;;;;5091082;28;20703;-78
2023/07/24 01:59:21;;;;;;;2.53;2.33;;;19.20;99.90;;;;;;5092952;28;20289;-77
2023/07/24 02:01:49;;;;;;;2.30;2.10;;;19.10;99.90;;;;;;5091999;28;20603;-77
2023/07/24 02:04:15;;;;;;;2.35;2.15;;;19.00;99.90;;;;;;5088017;28;20212;-78
2023/07/24 02:06:42;;;;;;;3.60;2.20;;;19.10;99.90;;;;;;5100068;28;20212;-78
2023/07/24 02:09:10;;;;;;;2.50;2.30;;;19.00;99.90;;;;;;5083633;28;20265;-79
2023/07/24 02:11:36;;;;;;;2.72;2.10;;;19.10;99.90;;;;;;5084817;28;20203;-78
2023/07/24 02:14:03;;;;;;;2.42;2.33;;;19.00;99.90;;;;;;5082589;28;20202;-79
2023/07/24 02:16:30;;;;;;;2.20;2.10;;;19.20;99.90;;;;;;5091155;28;20293;-79
2023/07/24 02:18:58;;;;;;;2.35;2.15;;;19.10;99.90;;;;;;5104707;28;20670;-78
2023/07/24 02:21:25;;;;;;;3.28;2.20;;;19.10;99.90;;;;;;5104846;28;20239;-79
2023/07/24 02:23:52;;;;;;;2.72;2.30;;;19.10;99.90;;;;;;5104258;28;20205;-78
2023/07/24 02:26:18;;;;;;;2.88;2.50;;;19.10;99.90;;;;;;5104466;28;20225;-79
2023/07/24 02:28:45;;;;;;;2.50;2.25;;;19.10;99.90;;;;;;5101635;28;20263;-79
2023/07/24 02:31:12;;;;;;;3.38;2.35;;;19.10;99.90;;;;;;5103041;28;20319;-78
2023/07/24 02:33:39;;;;;;;7.07;4.53;;;19.10;99.90;;;;;;5102569;28;20229;-79
2023/07/24 02:36:07;;;;;;;2.63;2.42;;;19.10;99.90;;;;;;5101936;28;20203;-78
2023/07/24 02:38:34;;;;;;;2.67;2.45;;;19.10;99.90;;;;;;5102630;28;20312;-79
2023/07/24 02:41:00;;;;;;;2.47;2.28;;;19.10;99.90;;;;;;5103044;28;20231;-78
2023/07/24 02:43:27;;;;;;;2.40;2.20;;;19.00;99.90;;;;;;5102208;28;20224;-78
2023/07/24 02:45:54;;;;;;;2.85;2.30;;;19.10;99.90;;;;;;5103191;28;20573;-78
2023/07/24 02:48:21;;;;;;;2.45;2.22;;;19.10;99.90;;;;;;5102065;28;20263;-79
2023/07/24 02:50:48;;;;;;;1.90;1.80;;;19.10;99.90;;;;;;5102772;28;20229;-79
2023/07/24 02:53:17;;;;;;;2.42;2.08;;;19.00;99.90;;;;;;5102564;28;20253;-78
2023/07/24 02:55:44;;;;;;;2.30;2.10;;;19.00;99.90;;;;;;5101801;28;20209;-77
2023/07/24 02:58:12;;;;;;;3.20;2.42;;;18.90;99.90;;;;;;5102474;28;20221;-78
2023/07/24 03:00:39;;;;;;;2.30;2.10;;;19.00;99.90;;;;;;5090756;28;20209;-78
2023/07/24 03:03:05;;;;;;;2.00;1.90;;;18.90;99.90;;;;;;5082039;28;20310;-78
2023/07/24 03:05:34;;;;;;;2.85;2.15;;;18.90;99.90;;;;;;5093294;28;20293;-78
2023/07/24 03:08:01;;;;;;;1.95;1.75;;;18.80;99.90;;;;;;5102444;28;20257;-78
2023/07/24 03:10:29;;;;;;;2.88;1.98;;;18.80;99.90;;;;;;5102058;28;20340;-78
2023/07/24 03:12:56;;;;;;;2.60;2.10;;;18.90;99.90;;;;;;5100147;28;20245;-79
2023/07/24 03:15:23;;;;;;;1.80;1.70;;;18.60;99.90;;;;;;5097687;28;20261;-80
2023/07/24 03:17:50;;;;;;;2.30;1.90;;;18.80;99.90;;;;;;5093686;28;20488;-80
2023/07/24 03:20:19;;;;;;;4.35;2.10;;;18.70;99.90;;;;;;5096700;28;20201;-79
2023/07/24 03:22:46;;;;;;;2.33;2.00;;;18.70;99.90;;;;;;5099118;28;20244;-79
2023/07/24 03:25:14;;;;;;;2.40;2.20;;;18.60;99.90;;;;;;5095946;28;20204;-79
2023/07/24 03:27:42;;;;;;;2.40;2.20;;;18.60;99.90;;;;;;5093326;28;20831;-78
2023/07/24 03:30:10;;;;;;;8.55;6.65;;;18.60;99.90;;;;;;5095406;28;20270;-78
2023/07/24 03:32:37;;;;;;;2.95;2.67;;;18.50;99.90;;;;;;5096132;28;20236;-80
2023/07/24 03:35:05;;;;;;;2.45;2.00;;;18.40;99.90;;;;;;5093907;28;20201;-78
2023/07/24 03:37:31;;;;;;;2.90;2.20;;;18.30;99.90;;;;;;5093103;28;20217;-78
2023/07/24 03:39:58;;;;;;;2.63;2.28;;;18.30;99.90;;;;;;5092847;28;20292;-78
2023/07/24 03:42:27;;;;;;;2.33;2.13;;;18.20;99.90;;;;;;5094316;28;20231;-78
2023/07/24 03:44:56;;;;;;;2.20;2.05;;;17.90;99.90;;;;;;5092497;28;20210;-78
2023/07/24 03:47:23;;;;;;;2.90;2.40;;;18.00;99.90;;;;;;5090506;28;20194;-78
2023/07/24 03:49:49;;;;;;;2.90;2.60;;;18.10;99.90;;;;;;5091341;28;20193;-78
2023/07/24 03:52:16;;;;;;;3.08;2.50;;;18.10;99.90;;;;;;5092143;28;20217;-81
2023/07/24 03:54:43;;;;;;;3.13;2.35;;;17.90;99.90;;;;;;5092240;28;20198;-78
2023/07/24 03:57:10;;;;;;;4.65;2.50;;;18.00;99.90;;;;;;5091000;28;20221;-78
2023/07/24 03:59:37;;;;;;;2.30;2.10;;;18.00;99.90;;;;;;5094962;28;20200;-78
2023/07/24 04:02:05;;;;;;;2.40;2.13;;;18.10;99.90;;;;;;5094719;28;20232;-81
2023/07/24 04:04:32;;;;;;;4.78;2.47;;;18.20;99.90;;;;;;5094550;28;20205;-83
2023/07/24 04:06:59;;;;;;;3.00;2.30;;;18.40;99.90;;;;;;5094033;28;20217;-81
2023/07/24 04:09:26;;;;;;;3.53;2.28;;;18.30;99.90;;;;;;5093967;28;20197;-81
2023/07/24 04:11:53;;;;;;;4.07;2.35;;;18.30;99.90;;;;;;5095054;28;20217;-81
2023/07/24 04:14:20;;;;;;;2.40;2.20;;;18.50;99.90;;;;;;5094865;28;20212;-83
2023/07/24 04:16:47;;;;;;;2.25;2.10;;;18.50;99.90;;;;;;5095021;28;20599;-80
2023/07/24 04:19:16;;;;;;;2.80;2.17;;;18.60;99.90;;;;;;5094424;28;20626;-80
2023/07/24 04:21:43;;;;;;;3.13;2.28;;;18.60;99.90;;;;;;5083957;28;20198;-82
2023/07/24 04:24:10;;;;;;;4.07;2.10;;;18.60;99.90;;;;;;5093907;28;20281;-80
2023/07/24 04:26:36;;;;;;;2.70;2.20;;;18.50;99.90;;;;;;5094778;28;20202;-82
2023/07/24 04:29:03;;;;;;;2.65;2.00;;;18.50;99.90;;;;;;5094989;28;20185;-84
2023/07/24 04:31:30;;;;;;;2.40;2.20;;;18.40;99.90;;;;;;5082392;28;20199;-82
2023/07/24 04:33:57;;;;;;;3.28;2.28;;;18.40;99.90;;;;;;5074189;28;20214;-80
2023/07/24 04:36:25;;;;;;;2.03;1.90;;;18.30;99.90;;;;;;5074394;28;20203;-82
2023/07/24 04:38:52;;;;;;;3.50;2.42;;;18.40;99.90;;;;;;5079512;28;20582;-82
2023/07/24 04:41:19;;;;;;;2.35;2.17;;;18.30;99.90;;;;;;5095005;28;20212;-81
2023/07/24 04:43:46;;;;;;;2.33;2.13;;;18.20;99.90;;;;;;5094677;28;20225;-83
2023/07/24 04:46:12;;;;;;;2.78;2.20;;;18.30;99.90;;;;;;5094593;28;20685;-81
2023/07/24 04:48:39;;;;;;;2.28;2.08;;;18.30;99.90;;;;;;5092687;28;20194;-82
2023/07/24 04:51:06;;;;;;;2.65;2.45;;;18.20;99.90;;;;;;5073810;28;20208;-82
2023/07/24 04:53:34;;;;;;;2.90;2.25;;;18.30;99.90;;;;;;5088667;28;20218;-81
2023/07/24 04:56:01;;;;;;;4.20;2.20;;;18.30;99.90;;;;;;5094951;28;20209;-82
2023/07/24 04:58:28;;;;;;;2.53;2.05;;;18.40;99.90;;;;;;5094044;28;20222;-81
2023/07/24 05:00:54;;;;;;;2.38;2.17;;;18.40;99.90;;;;;;5099940;28;20205;-81
2023/07/24 05:03:21;;;;;;;6.72;2.08;;;18.70;99.90;;;;;;5101744;28;20658;-80
2023/07/24 05:05:54;;;;;;;2.30;2.10;;;18.60;99.90;;;;;;5101498;28;20207;-80
2023/07/24 05:08:21;;;;;;;2.28;1.92;;;18.80;99.90;;;;;;5100363;28;20316;-81
2023/07/24 05:10:55;;;;;;;2.15;1.88;;;18.80;99.90;;;;;;5101718;28;20232;-81
2023/07/24 05:13:21;;;;;;;2.10;1.90;;;18.90;99.90;;;;;;5099166;28;20225;-82
2023/07/24 05:15:48;;;;;;;2.33;1.80;;;19.10;99.90;;;;;;5092553;28;20563;-80
2023/07/24 05:18:15;;;;;;;3.17;2.30;;;19.20;99.90;;;;;;5098794;28;20217;-82
2023/07/24 05:20:46;;;;;;;4.70;2.10;;;19.40;99.90;;;;;;5089533;28;20810;-81
2023/07/24 05:23:12;;;;;;;2.00;1.80;;;19.50;99.90;;;;;;5080806;28;20218;-81
2023/07/24 05:25:39;;;;;;;2.05;1.85;;;19.50;99.90;;;;;;5080767;28;20204;-83
2023/07/24 05:28:07;;;;;;;2.30;2.10;;;19.60;99.90;;;;;;5096291;28;20257;-82
2023/07/24 05:30:35;;;;;;;1.98;1.77;;;19.70;99.90;;;;;;5082274;28;20194;-82
2023/07/24 05:33:02;;;;;;;2.78;2.08;;;19.80;99.90;;;;;;5093532;28;20221;-86
2023/07/24 05:35:28;;;;;;;3.17;2.20;;;19.90;99.90;;;;;;5101923;28;20611;-81
2023/07/24 05:37:56;;;;;;;2.58;2.03;;;20.00;99.90;;;;;;5099716;28;20228;-81
2023/07/24 05:40:23;;;;;;;4.40;2.28;;;20.00;99.90;;;;;;5100654;28;20216;-80
2023/07/24 05:42:50;;;;;;;3.47;2.30;;;19.90;99.90;;;;;;5099221;28;20231;-80
2023/07/24 05:45:18;;;;;;;3.53;2.53;;;19.70;99.90;;;;;;5099596;28;20208;-79
2023/07/24 05:47:45;;;;;;;1.98;1.88;;;19.70;99.90;;;;;;5098982;28;20725;-79
2023/07/24 05:50:13;;;;;;;3.40;2.42;;;19.60;99.90;;;;;;5099611;28;20233;-82
2023/07/24 05:52:40;;;;;;;5.38;3.00;;;19.50;99.90;;;;;;5098840;28;20222;-79
2023/07/24 05:55:08;;;;;;;6.30;3.05;;;19.50;99.90;;;;;;5099269;28;20206;-82
2023/07/24 05:57:35;;;;;;;3.05;2.28;;;19.40;99.90;;;;;;5089876;28;20680;-81
2023/07/24 06:00:01;;;;;;;2.65;2.10;;;19.30;99.90;;;;;;5092838;28;20665;-79
2023/07/24 06:02:29;;;;;;;2.33;2.10;;;19.20;99.90;;;;;;5085596;28;20589;-80
2023/07/24 06:04:56;;;;;;;4.70;2.55;;;19.10;99.90;;;;;;5081327;28;20233;-80
2023/07/24 06:07:23;;;;;;;2.67;2.28;;;19.20;99.90;;;;;;5079933;28;20202;-83
2023/07/24 06:09:50;;;;;;;3.13;2.25;;;19.20;99.90;;;;;;5087064;28;20250;-81
2023/07/24 06:12:17;;;;;;;3.28;2.55;;;19.40;99.90;;;;;;5092670;28;20725;-82
2023/07/24 06:14:44;;;;;;;5.75;3.00;;;19.50;99.90;;;;;;5097169;28;20229;-80
2023/07/24 06:17:10;;;;;;;3.22;2.53;;;19.60;99.90;;;;;;5095261;28;20585;-80
2023/07/24 06:19:38;;;;;;;5.00;2.97;;;19.80;99.90;;;;;;5091334;28;20281;-83
2023/07/24 06:22:05;;;;;;;7.35;3.58;;;19.80;99.90;;;;;;5084105;28;20245;-83
2023/07/24 06:24:32;;;;;;;4.38;2.58;;;20.00;99.90;;;;;;5082110;28;20308;-80
2023/07/24 06:26:59;;;;;;;4.88;2.90;;;20.10;99.90;;;;;;5095920;28;20288;-81
2023/07/24 06:29:26;;;;;;;9.40;4.10;;;20.20;99.90;;;;;;5096372;28;20284;-81
2023/07/24 06:31:53;;;;;;;4.80;2.50;;;20.40;99.90;;;;;;5095976;28;20232;-80
2023/07/24 06:34:20;;;;;;;6.18;3.25;;;20.40;99.90;;;;;;5096307;28;20674;-83
2023/07/24 06:36:48;;;;;;;3.65;2.95;;;20.40;99.90;;;;;;5095793;28;20582;-80
2023/07/24 06:39:15;;;;;;;6.25;2.72;;;20.50;99.90;;;;;;5080669;28;20309;-80
2023/07/24 06:41:42;;;;;;;4.15;2.70;;;20.40;99.90;;;;;;5086420;28;20564;-82
2023/07/24 06:44:11;;;;;;;4.65;2.70;;;20.40;99.90;;;;;;5083881;28;20217;-80
2023/07/24 06:46:38;;;;;;;3.63;2.42;;;20.60;99.90;;;;;;5083798;28;20198;-80
2023/07/24 06:49:05;;;;;;;2.55;2.35;;;20.30;99.90;;;;;;5075980;28;20197;-80
2023/07/24 06:51:31;;;;;;;3.05;2.60;;;20.40;99.90;;;;;;5082192;28;20206;-80
2023/07/24 06:53:59;;;;;;;9.57;3.88;;;20.40;99.90;;;;;;5089783;28;20383;-80
2023/07/24 06:56:26;;;;;;;4.82;2.75;;;20.50;99.90;;;;;;5086819;28;20213;-80
2023/07/24 06:58:53;;;;;;;3.85;2.72;;;20.70;99.90;;;;;;5094545;28;20217;-81
2023/07/24 07:01:20;;;;;;;2.70;2.25;;;20.80;99.90;;;;;;5095271;28;20201;-82
2023/07/24 07:03:49;;;;;;;3.30;2.60;;;20.90;99.90;;;;;;5095304;28;20237;-80
2023/07/24 07:06:16;;;;;;;5.25;2.80;;;21.10;99.90;;;;;;5095621;28;20216;-80
2023/07/24 07:08:43;;;;;;;4.43;2.90;;;21.20;99.90;;;;;;5096282;28;20579;-82
2023/07/24 07:11:11;;;;;;;6.95;2.92;;;21.50;99.90;;;;;;5095522;28;20206;-81
2023/07/24 07:13:38;;;;;;;3.42;2.72;;;21.50;99.90;;;;;;5094381;28;20224;-82
2023/07/24 07:16:05;;;;;;;6.40;3.20;;;21.40;99.90;;;;;;5095563;28;20197;-81
2023/07/24 07:18:32;;;;;;;7.13;3.10;;;21.50;99.90;;;;;;5094605;28;20707;-81
2023/07/24 07:20:58;;;;;;;4.25;2.90;;;21.60;99.90;;;;;;5094542;28;20197;-80
2023/07/24 07:23:25;;;;;;;11.38;3.92;;;21.50;99.90;;;;;;5095235;28;20624;-81
2023/07/24 07:25:52;;;;;;;10.70;3.25;;;21.60;99.90;;;;;;5095071;28;20571;-80
2023/07/24 07:28:21;;;;;;;3.85;2.47;;;21.70;99.90;;;;;;5078367;28;20271;-80
2023/07/24 07:30:48;;;;;;;6.53;2.80;;;21.70;99.90;;;;;;5075140;28;20678;-80
2023/07/24 07:33:15;;;;;;;5.70;3.55;;;21.70;99.90;;;;;;5079711;28;20222;-80
2023/07/24 07:35:42;;;;;;;5.75;3.25;;;21.80;99.90;;;;;;5082805;28;20688;-80
2023/07/24 07:38:09;;;;;;;8.45;2.90;;;21.90;99.90;;;;;;5084560;28;20205;-80
2023/07/24 07:40:39;;;;;;;5.65;2.85;;;22.00;99.90;;;;;;5094257;28;20208;-81
2023/07/24 07:43:06;;;;;;;4.05;3.20;;;22.10;99.90;;;;;;5084865;28;20221;-79
2023/07/24 07:45:34;;;;;;;3.90;2.88;;;22.30;99.90;;;;;;5083539;28;20281;-80
2023/07/24 07:48:01;;;;;;;6.20;3.00;;;22.20;99.90;;;;;;5082036;28;20239;-80
2023/07/24 07:50:28;;;;;;;3.63;2.72;;;22.30;99.90;;;;;;5092742;28;20202;-79
2023/07/24 07:52:54;;;;;;;4.55;2.95;;;22.10;99.90;;;;;;5089234;28;20313;-82
2023/07/24 07:55:21;;;;;;;3.92;3.00;;;22.30;99.90;;;;;;5088351;28;20189;-82
2023/07/24 07:57:48;;;;;;;6.05;3.20;;;22.20;99.90;;;;;;5076503;28;20692;-80
2023/07/24 08:00:16;;;;;;;4.45;3.17;;;22.20;99.90;;;;;;5093873;28;20227;-79
2023/07/24 08:02:44;;;;;;;4.32;2.72;;;22.40;99.90;;;;;;5094476;28;20268;-80
2023/07/24 08:05:11;;;;;;;5.40;3.22;;;22.50;99.90;;;;;;5094128;28;20201;-80
2023/07/24 08:07:38;;;;;;;5.97;3.13;;;22.50;99.90;;;;;;5093118;28;20216;-81
2023/07/24 08:10:06;;;;;;;5.53;3.20;;;22.00;99.90;;;;;;5093911;28;20447;-81
2023/07/24 08:12:33;;;;;;;5.15;3.47;;;21.80;99.90;;;;;;5093909;28;20280;-80
2023/07/24 08:15:00;;;;;;;8.07;3.35;;;21.40;99.90;;;;;;5094400;28;20206;-81
2023/07/24 08:17:26;;;;;;;4.25;2.97;;;21.20;99.90;;;;;;5093577;28;20217;-81
2023/07/24 08:19:54;;;;;;;4.57;3.00;;;21.10;99.90;;;;;;5092619;28;20218;-81
2023/07/24 08:22:22;;;;;;;4.18;3.03;;;21.20;99.90;;;;;;5093610;28;20232;-79
2023/07/24 08:24:50;;;;;;;4.88;3.20;;;21.40;99.90;;;;;;5094024;28;20236;-80
2023/07/24 08:27:17;;;;;;;3.22;2.70;;;21.40;99.90;;;;;;5092968;28;20208;-80
2023/07/24 08:29:43;;;;;;;5.00;3.17;;;21.30;99.90;;;;;;5093975;28;20202;-79
2023/07/24 08:32:10;;;;;;;5.18;3.22;;;21.00;99.90;;;;;;5093002;28;20245;-79
2023/07/24 08:34:37;;;;;;;5.10;3.03;;;20.30;99.90;;;;;;5093232;28;20247;-80
2023/07/24 08:37:06;;;;;;;7.93;3.20;;;20.20;99.90;;;;;;5092975;28;20285;-80
2023/07/24 08:39:33;;;;;;;5.85;3.70;;;20.10;99.90;;;;;;5092380;28;20305;-80
2023/07/24 08:41:59;;;;;;;3.22;2.42;;;20.20;99.90;;;;;;5084580;28;20226;-81
2023/07/24 08:44:31;;;;;;;3.10;2.78;;;20.30;99.90;;;;;;5085516;28;20208;-79
2023/07/24 08:46:58;;;;;;;3.53;3.00;;;20.40;99.90;;;;;;5076281;28;20194;-80
2023/07/24 08:49:26;;;;;;;5.07;2.83;;;20.60;99.90;;;;;;5089865;28;20199;-81
2023/07/24 08:51:54;;;;;;;41.50;7.75;;;20.70;99.90;;;;;;5080051;28;20218;-81
2023/07/24 08:54:24;;;;;;;4.72;3.05;;;20.90;99.90;;;;;;5080910;28;20198;-81
2023/07/24 08:56:55;;;;;;;4.13;3.67;;;20.80;99.90;;;;;;5085610;28;20750;-81
2023/07/24 08:59:21;;;;;;;4.43;3.03;;;20.80;99.90;;;;;;5095032;28;20235;-78
2023/07/24 09:01:48;;;;;;;4.82;3.05;;;20.80;99.90;;;;;;5078757;28;20234;-79
2023/07/24 09:04:15;;;;;;;3.55;2.95;;;20.90;99.90;;;;;;5076684;28;20198;-79
2023/07/24 09:06:42;;;;;;;3.88;2.60;;;20.90;99.90;;;;;;5087915;28;20223;-79
2023/07/24 09:09:14;;;;;;;3.67;2.90;;;20.90;99.90;;;;;;5085740;28;20202;-79
2023/07/24 09:11:50;;;;;;;4.05;2.80;;;21.00;99.90;;;;;;5082401;28;20210;-79
2023/07/24 09:14:38;;;;;;;3.30;3.00;;;21.20;99.90;;;;;;5085465;28;20679;-79
2023/07/24 09:17:07;;;;;;;6.28;3.13;;;21.10;99.90;;;;;;5085256;28;20197;-79
2023/07/24 09:19:34;;;;;;;5.88;3.05;;;21.10;99.90;;;;;;5090058;28;20209;-79
2023/07/24 09:22:20;;;;;;;4.88;3.08;;;20.90;99.90;;;;;;5092903;28;20232;-79
2023/07/24 09:24:51;;;;;;;5.20;3.15;;;21.10;99.90;;;;;;5082524;28;20206;-79
2023/07/24 09:27:20;;;;;;;3.80;2.95;;;21.10;99.90;;;;;;5082301;28;20194;-79
2023/07/24 09:29:48;;;;;;;5.45;2.95;;;21.20;99.90;;;;;;5085178;28;20198;-78
2023/07/24 09:32:22;;;;;;;4.07;2.83;;;21.40;99.90;;;;;;5088403;28;20224;-79
2023/07/24 09:34:50;;;;;;;6.82;3.50;;;21.40;99.90;;;;;;5087172;28;20208;-78
2023/07/24 09:37:25;;;;;;;3.83;3.30;;;21.40;99.90;;;;;;5082109;28;20212;-79
2023/07/24 09:39:52;;;;;;;3.30;3.00;;;21.60;99.90;;;;;;5087734;28;20217;-80
2023/07/24 09:42:29;;;;;;;3.63;3.08;;;21.80;99.90;;;;;;5086148;28;20218;-78
2023/07/24 09:44:55;;;;;;;4.20;2.90;;;22.30;99.90;;;;;;5085844;28;20202;-80
2023/07/24 09:47:23;;;;;;;4.85;2.92;;;22.70;99.90;;;;;;5093633;28;20567;-79
2023/07/24 09:49:51;;;;;;;3.40;2.83;;;22.80;99.90;;;;;;5095549;28;20190;-79
2023/07/24 09:52:19;;;;;;;3.47;2.90;;;22.70;99.90;;;;;;5092797;28;20343;-79
2023/07/24 09:54:56;;;;;;;3.25;2.53;;;22.60;99.90;;;;;;5083583;28;20288;-79
2023/07/24 09:57:24;;;;;;;3.20;2.90;;;22.50;99.90;;;;;;5093182;28;20251;-80
2023/07/24 09:59:53;;;;;;;3.95;2.92;;;22.80;99.90;;;;;;5087685;28;20312;-79
2023/07/24 10:02:20;;;;;;;3.17;2.80;;;22.80;99.90;;;;;;5091874;28;20221;-80
2023/07/24 10:04:48;;;;;;;3.15;2.78;;;23.00;99.90;;;;;;5089134;28;20639;-80
2023/07/24 10:07:16;;;;;;;5.80;2.88;;;22.90;99.90;;;;;;5085724;28;20207;-79
2023/07/24 10:09:44;;;;;;;4.28;3.10;;;22.60;99.90;;;;;;5086585;28;20208;-79
2023/07/24 10:12:11;;;;;;;8.20;3.38;;;22.40;99.90;;;;;;5084205;28;20222;-80
2023/07/24 10:14:39;;;;;;;3.10;2.80;;;22.50;99.90;;;;;;5083805;28;20312;-80
2023/07/24 10:17:06;;;;;;;6.18;2.55;;;22.90;99.90;;;;;;5093353;28;20205;-79
2023/07/24 10:19:38;;;;;;;2.72;2.40;;;23.60;99.90;;;;;;5089528;28;20217;-79
2023/07/24 10:22:05;;;;;;;2.90;2.70;;;23.30;99.90;;;;;;5091745;28;20221;-80
2023/07/24 10:24:33;;;;;;;2.90;2.70;;;23.20;99.90;;;;;;5081392;28;20259;-79
2023/07/24 10:27:00;;;;;;;2.45;2.25;;;23.60;99.90;;;;;;5089690;28;20217;-78
2023/07/24 10:29:27;;;;;;;5.43;2.47;;;24.10;99.90;;;;;;5095179;28;20639;-79
2023/07/24 10:31:56;;;;;;;5.88;3.40;;;24.70;99.90;;;;;;5089510;28;20241;-80
2023/07/24 10:34:23;;;;;;;3.30;2.75;;;25.10;99.90;;;;;;5078073;28;20265;-80
2023/07/24 10:36:49;;;;;;;4.35;2.63;;;25.10;99.90;;;;;;5086849;28;20200;-79
2023/07/24 10:39:18;;;;;;;3.13;2.50;;;25.70;99.90;;;;;;5096398;28;20291;-80
2023/07/24 10:41:46;;;;;;;4.53;2.78;;;26.20;99.90;;;;;;5097923;28;20247;-79
2023/07/24 10:44:12;;;;;;;3.53;2.80;;;25.60;99.90;;;;;;5098280;28;20198;-80
2023/07/24 10:46:41;;;;;;;5.75;3.00;;;25.60;99.90;;;;;;5097423;28;20201;-80
2023/07/24 10:49:10;;;;;;;4.80;2.92;;;24.90;99.90;;;;;;5098167;28;20621;-80
2023/07/24 10:51:38;;;;;;;3.47;2.75;;;24.60;99.90;;;;;;5095953;28;20665;-80
2023/07/24 10:54:05;;;;;;;3.00;2.80;;;25.00;99.90;;;;;;5093313;28;20194;-79
2023/07/24 10:56:32;;;;;;;3.20;2.83;;;24.90;99.90;;;;;;5077073;28;20666;-80
2023/07/24 10:59:04;;;;;;;3.45;2.70;;;25.20;99.90;;;;;;5076563;28;20212;-81
2023/07/24 11:01:33;;;;;;;4.07;3.20;;;25.60;99.90;;;;;;5078268;28;20297;-81
2023/07/24 11:04:00;;;;;;;4.28;3.08;;;25.30;99.90;;;;;;5077926;28;20198;-80
2023/07/24 11:06:29;;;;;;;3.45;3.00;;;25.70;99.90;;;;;;5077566;28;20610;-80
2023/07/24 11:08:58;;;;;;;3.35;2.92;;;26.10;99.90;;;;;;5087587;28;20204;-80
2023/07/24 11:11:30;;;;;;;3.53;2.85;;;26.10;99.90;;;;;;5096998;28;20689;-80
2023/07/24 11:13:57;;;;;;;4.65;3.03;;;26.10;99.90;;;;;;5089563;28;20208;-80
2023/07/24 11:16:24;;;;;;;3.90;3.20;;;25.20;99.90;;;;;;5088005;28;20304;-79
2023/07/24 11:18:52;;;;;;;3.78;3.33;;;25.00;99.90;;;;;;5078623;28;20206;-79
2023/07/24 11:21:20;;;;;;;3.30;2.95;;;26.10;99.90;;;;;;5086690;28;20232;-80
2023/07/24 11:23:54;;;;;;;3.35;3.05;;;26.50;99.90;;;;;;5096811;28;20225;-80
2023/07/24 11:26:21;;;;;;;4.07;3.10;;;26.20;99.90;;;;;;5081798;28;20284;-79
2023/07/24 11:28:52;;;;;;;3.90;3.13;;;26.70;99.90;;;;;;5093444;28;20197;-80
2023/07/24 11:31:20;;;;;;;5.43;4.70;;;26.30;99.90;;;;;;5077657;28;20247;-80
2023/07/24 11:33:48;;;;;;;5.35;3.80;;;25.90;99.90;;;;;;5095410;28;20232;-80
2023/07/24 11:36:16;;;;;;;3.72;3.15;;;26.00;99.90;;;;;;5079144;28;20391;-82
2023/07/24 11:38:47;;;;;;;4.82;3.42;;;26.20;99.90;;;;;;5081474;28;20693;-81
2023/07/24 11:41:17;;;;;;;4.00;3.15;;;26.50;99.90;;;;;;5079256;28;20610;-81
2023/07/24 11:43:48;;;;;;;4.20;3.03;;;26.30;99.90;;;;;;5094199;28;20246;-81
2023/07/24 11:46:24;;;;;;;4.20;3.17;;;26.00;99.90;;;;;;5092511;28;20280;-81
2023/07/24 11:48:56;;;;;;;4.38;3.50;;;25.80;99.90;;;;;;5097239;28;20202;-79
2023/07/24 11:51:25;;;;;;;4.00;3.30;;;26.10;99.90;;;;;;5082790;28;20290;-81
2023/07/24 11:53:52;;;;;;;4.07;3.17;;;26.70;99.90;;;;;;5084186;28;20212;-81
2023/07/24 11:56:21;;;;;;;4.82;3.40;;;26.90;99.90;;;;;;5079774;28;20678;-81
2023/07/24 11:58:48;;;;;;;4.15;3.63;;;26.80;99.90;;;;;;5078714;28;20273;-81
2023/07/24 12:01:15;;;;;;;4.30;3.90;;;26.90;99.90;;;;;;5097306;28;20224;-81
2023/07/24 12:03:43;;;;;;;4.20;3.60;;;27.20;99.90;;;;;;5092889;28;20228;-82
2023/07/24 12:06:16;;;;;;;3.75;3.17;;;27.40;99.90;;;;;;5084266;28;20202;-80
2023/07/24 12:08:43;;;;;;;3.92;3.55;;;27.30;99.90;;;;;;5086182;28;20213;-81
2023/07/24 12:11:18;;;;;;;3.42;3.13;;;27.30;99.90;;;;;;5078587;28;20263;-81
2023/07/24 12:13:46;;;;;;;3.60;3.30;;;27.40;99.90;;;;;;5095546;28;20311;-81
2023/07/24 12:16:13;;;;;;;12.57;3.58;;;27.50;99.90;;;;;;5084135;28;20203;-81
2023/07/24 12:18:40;;;;;;;3.55;3.25;;;27.60;99.90;;;;;;5083788;28;20199;-80
2023/07/24 12:21:07;;;;;;;3.72;3.10;;;27.60;99.90;;;;;;5089430;28;20280;-78
2023/07/24 12:23:34;;;;;;;4.00;3.63;;;27.10;99.90;;;;;;5087330;28;20304;-80
2023/07/24 12:26:01;;;;;;;4.53;3.22;;;26.20;99.90;;;;;;5083785;28;20202;-79
2023/07/24 12:28:28;;;;;;;5.47;3.97;;;25.80;99.90;;;;;;5092400;28;20614;-77
2023/07/24 12:30:56;;;;;;;4.20;3.60;;;25.70;99.90;;;;;;5090181;28;20275;-78
2023/07/24 12:33:24;;;;;;;4.70;4.15;;;25.40;99.90;;;;;;5082084;28;20303;-78
2023/07/24 12:35:51;;;;;;;5.32;4.05;;;25.20;99.90;;;;;;5078189;28;20203;-79
2023/07/24 12:38:18;;;;;;;5.80;4.10;;;24.90;99.90;;;;;;5083762;28;20197;-78
2023/07/24 12:40:46;;;;;;;5.13;4.25;;;25.00;99.90;;;;;;5081600;28;20232;-79
2023/07/24 12:43:13;;;;;;;4.35;3.95;;;25.00;99.90;;;;;;5080609;28;20313;-79
2023/07/24 12:45:40;;;;;;;4.80;4.10;;;24.90;99.90;;;;;;5076012;28;20206;-79
2023/07/24 12:48:08;;;;;;;5.03;3.78;;;24.30;99.90;;;;;;5082536;28;20206;-78